createdAt,value
2018-05-24T00:00:24.863Z,17.23
2018-05-24T00:02:52.360Z,16.07
2018-05-24T00:05:19.860Z,16.30
2018-05-24T00:07:47.385Z,19.43
2018-05-24T00:10:14.892Z,18.23
2018-05-24T00:12:42.413Z,16.63
2018-05-24T00:15:10.671Z,17.53
2018-05-24T00:17:38.163Z,17.40
2018-05-24T00:20:05.688Z,19.33
2018-05-24T00:22:33.188Z,17.27
2018-05-24T00:25:00.712Z,17.87
2018-05-24T00:27:28.208Z,17.63
2018-05-24T00:29:55.708Z,20.07
2018-05-24T00:32:23.229Z,17.13
2018-05-24T00:34:51.627Z,20.10
2018-05-24T00:37:20.096Z,18.47
2018-05-24T00:39:47.588Z,20.63
2018-05-24T00:42:15.090Z,19.77
2018-05-24T00:44:43.372Z,17.50
2018-05-24T00:47:10.868Z,18.23
2018-05-24T00:49:38.396Z,19.47
2018-05-24T00:52:05.892Z,19.40
2018-05-24T00:54:34.226Z,20.13
2018-05-24T00:57:01.691Z,18.07
2018-05-24T00:59:29.193Z,21.43
2018-05-24T01:01:56.713Z,19.23
2018-05-24T01:04:24.207Z,27.10
2018-05-24T01:06:51.729Z,22.27
2018-05-24T01:09:19.247Z,21.87
2018-05-24T01:11:46.751Z,18.27
2018-05-24T01:14:14.273Z,19.70
2018-05-24T01:16:42.531Z,19.73
2018-05-24T01:19:10.062Z,21.33
2018-05-24T01:21:37.560Z,24.23
2018-05-24T01:24:05.061Z,20.67
2018-05-24T01:26:32.580Z,21.77
2018-05-24T01:29:00.072Z,21.67
2018-05-24T01:31:27.603Z,21.07
2018-05-24T01:33:55.869Z,21.03
2018-05-24T01:39:18.111Z,22.10
2018-05-24T01:41:45.647Z,21.73
2018-05-24T01:44:13.137Z,21.17
2018-05-24T01:46:40.634Z,22.97
2018-05-24T01:49:08.156Z,21.53
2018-05-24T01:51:35.657Z,22.30
2018-05-24T01:54:03.172Z,23.40
2018-05-24T01:56:30.668Z,22.93
2018-05-24T01:58:58.191Z,21.10
2018-05-24T02:01:25.684Z,21.50
2018-05-24T02:03:53.203Z,21.83
2018-05-24T02:06:20.696Z,29.70
2018-05-24T02:08:48.192Z,24.60
2018-05-24T02:11:15.713Z,23.70
2018-05-24T02:13:43.205Z,25.07
2018-05-24T02:16:10.773Z,23.23
2018-05-24T02:18:38.273Z,22.23
2018-05-24T02:21:06.537Z,23.60
2018-05-24T02:23:34.065Z,22.87
2018-05-24T02:26:01.566Z,23.97
2018-05-24T02:28:29.856Z,24.73
2018-05-24T02:30:58.122Z,24.30
2018-05-24T02:33:26.418Z,23.00
2018-05-24T02:35:54.072Z,24.87
2018-05-24T02:38:21.457Z,25.27
2018-05-24T02:40:49.347Z,25.03
2018-05-24T02:43:17.636Z,22.10
2018-05-24T02:45:45.143Z,21.87
2018-05-24T02:48:12.658Z,21.97
2018-05-24T02:50:40.185Z,21.00
2018-05-24T02:53:07.682Z,21.50
2018-05-24T02:55:35.204Z,21.30
2018-05-24T02:58:02.708Z,22.77
2018-05-24T03:00:31.001Z,23.50
2018-05-24T03:02:58.500Z,22.73
2018-05-24T03:05:26.002Z,26.43
2018-05-24T03:07:54.293Z,28.47
2018-05-24T03:10:22.557Z,24.57
2018-05-24T03:12:50.866Z,25.97
2018-05-24T03:15:18.375Z,26.70
2018-05-24T03:17:45.913Z,27.67
2018-05-24T03:20:13.501Z,30.87
2018-05-24T03:22:41.002Z,24.87
2018-05-24T03:25:08.525Z,25.77
2018-05-24T03:27:36.789Z,30.40
2018-05-24T03:30:04.400Z,25.37
2018-05-24T03:32:31.832Z,25.97
2018-05-24T03:35:00.116Z,26.10
2018-05-24T03:37:27.612Z,31.83
2018-05-24T03:39:55.118Z,27.60
2018-05-24T03:42:23.413Z,27.10
2018-05-24T03:44:50.913Z,26.67
2018-05-24T03:47:18.439Z,30.00
2018-05-24T03:49:45.945Z,28.23
2018-05-24T03:52:13.515Z,36.63
2018-05-24T03:54:40.999Z,30.97
2018-05-24T03:57:09.264Z,34.60
2018-05-24T04:02:51.181Z,31.13
2018-05-24T04:05:19.453Z,32.63
2018-05-24T04:07:47.725Z,28.87
2018-05-24T04:10:15.253Z,29.63
2018-05-24T04:12:42.756Z,32.13
2018-05-24T04:15:11.052Z,31.60
2018-05-24T04:17:38.557Z,33.93
2018-05-24T04:20:06.062Z,33.33
2018-05-24T04:22:33.585Z,32.10
2018-05-24T04:25:01.085Z,30.70
2018-05-24T04:27:28.622Z,32.50
2018-05-24T04:29:56.897Z,33.20
2018-05-24T04:32:25.188Z,33.83
2018-05-24T04:34:53.459Z,32.03
2018-05-24T04:37:21.730Z,32.90
2018-05-24T04:39:50.021Z,33.93
2018-05-24T04:42:17.522Z,38.23
2018-05-24T04:44:45.057Z,29.83
2018-05-24T04:47:12.561Z,31.60
2018-05-24T04:49:40.796Z,35.37
2018-05-24T04:52:08.309Z,36.57
2018-05-24T04:54:35.883Z,38.07
2018-05-24T04:57:03.409Z,38.77
2018-05-24T04:59:30.932Z,34.40
2018-05-24T05:01:58.589Z,45.90
2018-05-24T05:04:26.133Z,36.63
2018-05-24T05:06:53.658Z,36.67
2018-05-24T05:09:21.156Z,37.50
2018-05-24T05:11:48.693Z,36.23
2018-05-24T05:14:16.964Z,39.30
2018-05-24T05:16:45.231Z,40.70
2018-05-24T05:19:12.753Z,38.83
2018-05-24T05:21:40.253Z,37.57
2018-05-24T05:24:07.781Z,45.07
2018-05-24T05:26:35.281Z,38.93
2018-05-24T05:29:03.573Z,44.83
2018-05-24T05:31:31.081Z,40.17
2018-05-24T05:33:58.580Z,43.60
2018-05-24T05:36:26.869Z,42.03
2018-05-24T05:38:54.377Z,156.37
2018-05-24T05:41:21.900Z,43.03
2018-05-24T05:43:49.405Z,43.50
2018-05-24T05:46:16.929Z,40.77
2018-05-24T05:48:44.429Z,39.57
2018-05-24T05:51:11.929Z,37.90
2018-05-24T05:53:39.455Z,38.87
2018-05-24T05:56:07.749Z,111.27
2018-05-24T05:58:36.044Z,41.93
2018-05-24T06:01:03.545Z,41.33
2018-05-24T06:03:31.068Z,46.87
2018-05-24T06:05:58.569Z,43.23
2018-05-24T06:08:26.068Z,39.50
2018-05-24T06:10:53.592Z,38.73
2018-05-24T06:13:21.093Z,39.40
2018-05-24T06:15:48.620Z,39.60
2018-05-24T06:18:16.884Z,35.53
2018-05-24T06:20:44.416Z,40.00
2018-05-24T06:23:11.913Z,35.63
2018-05-24T06:25:39.441Z,32.23
2018-05-24T06:28:06.945Z,37.67
2018-05-24T06:30:35.212Z,43.13
2018-05-24T06:33:03.506Z,47.10
2018-05-24T06:35:31.017Z,36.07
2018-05-24T06:37:58.541Z,35.57
2018-05-24T06:40:26.050Z,33.23
2018-05-24T06:42:53.596Z,35.20
2018-05-24T06:45:21.099Z,35.27
2018-05-24T06:47:48.612Z,29.77
2018-05-24T06:50:16.133Z,33.60
2018-05-24T06:52:43.638Z,32.57
2018-05-24T06:55:11.165Z,30.83
2018-05-24T06:57:38.665Z,29.13
2018-05-24T07:00:07.697Z,28.60
2018-05-24T07:02:35.196Z,29.67
2018-05-24T07:05:02.716Z,32.73
2018-05-24T07:07:30.218Z,28.47
2018-05-24T07:09:57.775Z,30.53
2018-05-24T07:12:25.320Z,29.87
2018-05-24T07:14:53.040Z,24.90
2018-05-24T07:17:21.329Z,29.77
2018-05-24T07:19:48.861Z,27.10
2018-05-24T07:22:16.385Z,26.53
2018-05-24T07:24:43.975Z,25.83
2018-05-24T07:27:11.409Z,20.43
2018-05-24T07:29:38.940Z,22.53
2018-05-24T07:32:06.441Z,19.50
2018-05-24T07:34:33.968Z,19.90
2018-05-24T07:37:01.475Z,17.63
2018-05-24T07:39:29.769Z,16.73
2018-05-24T07:41:58.068Z,19.10
2018-05-24T07:44:25.576Z,20.07
2018-05-24T07:46:54.613Z,15.50
2018-05-24T07:49:22.124Z,15.40
2018-05-24T07:51:49.657Z,14.53
2018-05-24T07:54:17.165Z,11.90
2018-05-24T07:56:45.429Z,10.47
2018-05-24T07:59:12.956Z,11.30
2018-05-24T08:01:40.503Z,12.20
2018-05-24T08:04:08.012Z,9.80
2018-05-24T08:06:36.281Z,11.60
2018-05-24T08:09:03.801Z,9.53
2018-05-24T08:11:31.316Z,9.60
2018-05-24T08:13:59.608Z,10.57
2018-05-24T08:16:27.113Z,11.33
2018-05-24T08:18:54.616Z,10.73
2018-05-24T08:21:22.920Z,11.40
2018-05-24T08:23:50.420Z,11.13
2018-05-24T08:26:18.015Z,11.00
2018-05-24T08:28:45.525Z,10.90
2018-05-24T08:31:13.049Z,10.50
2018-05-24T08:33:40.555Z,11.37
2018-05-24T08:36:08.086Z,11.03
2018-05-24T08:38:35.588Z,11.37
2018-05-24T08:41:03.099Z,11.57
2018-05-24T08:43:30.684Z,10.20
2018-05-24T08:45:58.181Z,10.10
2018-05-24T08:48:26.473Z,10.10
2018-05-24T08:50:53.985Z,10.97
2018-05-24T08:53:21.785Z,9.40
2018-05-24T08:55:49.221Z,7.80
2018-05-24T08:58:16.725Z,6.27
2018-05-24T09:00:44.244Z,8.07
2018-05-24T09:03:12.512Z,6.63
2018-05-24T09:05:40.033Z,6.60
2018-05-24T09:08:07.533Z,7.10
2018-05-24T09:10:35.057Z,6.33
2018-05-24T09:13:02.553Z,6.30
2018-05-24T09:15:30.844Z,7.03
2018-05-24T09:17:59.109Z,6.63
2018-05-24T09:20:27.372Z,6.50
2018-05-24T09:22:54.897Z,6.93
2018-05-24T09:25:22.401Z,6.50
2018-05-24T09:27:50.906Z,6.07
2018-05-24T09:30:18.401Z,6.90
2018-05-24T09:32:45.921Z,6.97
2018-05-24T09:35:13.428Z,6.03
2018-05-24T09:37:40.954Z,7.20
2018-05-24T09:40:08.458Z,7.30
2018-05-24T09:42:35.954Z,6.20
2018-05-24T09:45:03.477Z,8.10
2018-05-24T09:47:30.972Z,8.27
2018-05-24T09:49:58.497Z,8.57
2018-05-24T09:52:26.003Z,9.10
2018-05-24T09:54:53.532Z,7.57
2018-05-24T09:57:21.797Z,7.87
2018-05-24T09:59:49.297Z,8.10
2018-05-24T10:02:16.817Z,7.60
2018-05-24T10:04:45.106Z,7.60
2018-05-24T10:07:13.393Z,10.70
2018-05-24T10:09:40.905Z,8.30
2018-05-24T10:12:08.426Z,8.17
2018-05-24T10:14:35.933Z,21.17
2018-05-24T10:17:03.456Z,8.50
2018-05-24T10:19:30.952Z,8.27
2018-05-24T10:21:58.452Z,7.17
2018-05-24T10:24:25.976Z,8.10
2018-05-24T10:26:53.473Z,6.93
2018-05-24T10:29:21.016Z,7.47
2018-05-24T10:31:49.284Z,6.77
2018-05-24T10:34:17.569Z,6.63
2018-05-24T10:36:45.833Z,7.47
2018-05-24T10:39:14.099Z,6.90
2018-05-24T10:41:41.621Z,6.90
2018-05-24T10:44:09.116Z,8.03
2018-05-24T10:46:36.640Z,6.80
2018-05-24T10:49:04.132Z,7.23
2018-05-24T10:51:31.653Z,7.57
2018-05-24T10:53:59.159Z,7.50
2018-05-24T10:56:27.445Z,6.80
2018-05-24T10:58:55.704Z,8.07
2018-05-24T11:01:23.200Z,6.83
2018-05-24T11:03:50.725Z,7.13
2018-05-24T11:06:18.239Z,8.37
2018-05-24T11:08:45.765Z,7.80
2018-05-24T11:11:14.029Z,7.50
2018-05-24T11:13:42.313Z,7.30
2018-05-24T11:16:10.572Z,8.77
2018-05-24T11:18:38.070Z,7.67
2018-05-24T11:21:05.592Z,8.00
2018-05-24T11:23:33.858Z,8.30
2018-05-24T11:26:01.382Z,8.00
2018-05-24T11:28:28.872Z,8.70
2018-05-24T11:30:56.390Z,8.20
2018-05-24T11:33:23.884Z,7.53
2018-05-24T11:35:51.386Z,6.23
2018-05-24T11:38:18.908Z,6.00
2018-05-24T11:40:46.400Z,5.70
2018-05-24T11:43:13.980Z,7.80
2018-05-24T11:45:42.205Z,6.63
2018-05-24T11:48:09.734Z,6.47
2018-05-24T11:50:37.237Z,6.13
2018-05-24T11:53:05.500Z,5.63
2018-05-24T11:55:33.021Z,5.53
2018-05-24T11:58:00.516Z,5.63
2018-05-24T12:00:28.037Z,5.27
2018-05-24T12:02:55.531Z,5.30
2018-05-24T12:05:23.053Z,5.70
2018-05-24T12:07:50.549Z,6.70
2018-05-24T12:10:18.073Z,5.23
2018-05-24T12:12:45.572Z,5.60
2018-05-24T12:15:13.896Z,5.50
2018-05-24T12:17:42.141Z,5.50
2018-05-24T12:20:10.410Z,5.37
2018-05-24T12:22:38.696Z,4.93
2018-05-24T12:25:06.964Z,4.77
2018-05-24T12:27:35.261Z,4.63
2018-05-24T12:30:02.761Z,4.90
2018-05-24T12:32:30.277Z,4.83
2018-05-24T12:34:57.801Z,4.57
2018-05-24T12:37:25.300Z,4.87
2018-05-24T12:39:52.828Z,5.20
2018-05-24T12:42:21.092Z,6.13
2018-05-24T12:44:48.612Z,4.63
2018-05-24T12:47:16.108Z,4.70
2018-05-24T12:49:43.633Z,5.53
2018-05-24T12:52:11.125Z,4.20
2018-05-24T12:54:38.624Z,4.13
2018-05-24T12:57:06.145Z,4.37
2018-05-24T12:59:33.647Z,4.20
2018-05-24T13:02:01.169Z,3.80
2018-05-24T13:04:29.432Z,4.00
2018-05-24T13:06:56.956Z,4.00
2018-05-24T13:09:24.532Z,4.03
2018-05-24T13:11:52.729Z,3.50
2018-05-24T13:14:20.249Z,4.33
2018-05-24T13:16:47.749Z,3.70
2018-05-24T13:19:15.273Z,4.03
2018-05-24T13:21:42.770Z,4.63
2018-05-24T13:24:10.293Z,3.97
2018-05-24T13:26:37.788Z,4.73
2018-05-24T13:29:05.313Z,4.70
2018-05-24T13:31:32.813Z,4.97
2018-05-24T13:34:01.081Z,4.83
2018-05-24T13:36:28.596Z,4.27
2018-05-24T13:38:56.092Z,3.90
2018-05-24T13:41:23.612Z,5.87
2018-05-24T13:43:51.120Z,4.40
2018-05-24T13:46:19.409Z,3.70
2018-05-24T13:48:47.669Z,4.20
2018-05-24T13:51:15.184Z,4.27
2018-05-24T13:53:42.681Z,3.83
2018-05-24T13:56:10.172Z,4.17
2018-05-24T13:58:37.688Z,4.30
2018-05-24T14:01:05.185Z,3.80
2018-05-24T14:03:33.468Z,3.93
2018-05-24T14:06:00.965Z,4.23
2018-05-24T14:08:28.484Z,4.67
2018-05-24T14:10:55.988Z,4.50
2018-05-24T14:13:23.513Z,5.23
2018-05-24T14:15:51.300Z,4.07
2018-05-24T14:18:18.825Z,4.03
2018-05-24T14:20:46.321Z,5.80
2018-05-24T14:23:13.845Z,4.90
2018-05-24T14:25:41.346Z,5.17
2018-05-24T14:28:08.852Z,4.73
2018-05-24T14:30:37.135Z,4.90
2018-05-24T14:33:04.628Z,4.53
2018-05-24T14:35:32.148Z,5.33
2018-05-24T14:38:00.404Z,4.73
2018-05-24T14:40:27.920Z,4.20
2018-05-24T14:42:55.416Z,4.37
2018-05-24T14:45:22.908Z,4.47
2018-05-24T14:47:56.109Z,4.33
2018-05-24T14:50:23.615Z,5.30
2018-05-24T14:52:51.132Z,7.40
2018-05-24T14:55:18.632Z,9.23
2018-05-24T14:57:46.152Z,8.60
2018-05-24T15:00:13.649Z,9.70
2018-05-24T15:02:41.145Z,8.67
2018-05-24T15:05:08.665Z,9.60
2018-05-24T15:07:36.169Z,9.40
2018-05-24T15:10:03.697Z,13.83
2018-05-24T15:12:31.965Z,9.30
2018-05-24T15:14:59.467Z,9.13
2018-05-24T15:17:26.992Z,10.07
2018-05-24T15:19:54.496Z,10.07
2018-05-24T15:22:22.022Z,12.17
2018-05-24T15:24:50.292Z,11.40
2018-05-24T15:27:18.556Z,10.63
2018-05-24T15:29:46.085Z,10.00
2018-05-24T15:32:13.585Z,10.27
2018-05-24T15:34:41.881Z,10.70
2018-05-24T15:37:09.376Z,10.47
2018-05-24T15:39:36.897Z,9.87
2018-05-24T15:42:04.396Z,10.70
2018-05-24T15:44:31.916Z,9.63
2018-05-24T15:46:59.418Z,10.77
2018-05-24T15:49:26.928Z,10.00
2018-05-24T15:51:55.216Z,10.30
2018-05-24T15:54:22.708Z,8.60
2018-05-24T15:56:50.228Z,10.70
2018-05-24T15:59:17.732Z,8.70
2018-05-24T16:01:45.248Z,9.63
2018-05-24T16:04:12.749Z,8.53
2018-05-24T16:06:40.245Z,12.43
2018-05-24T16:09:07.769Z,8.70
2018-05-24T16:11:35.272Z,9.37
2018-05-24T16:14:03.565Z,9.23
2018-05-24T16:16:31.066Z,14.53
2018-05-24T16:18:58.596Z,9.23
2018-05-24T16:21:26.096Z,10.17
2018-05-24T16:23:53.605Z,30.83
2018-05-24T16:26:21.124Z,9.57
2018-05-24T16:28:49.386Z,9.87
2018-05-24T16:31:16.909Z,10.00
2018-05-24T16:33:44.409Z,8.70
2018-05-24T16:36:11.941Z,11.10
2018-05-24T16:38:39.440Z,12.37
2018-05-24T16:41:07.705Z,11.00
2018-05-24T16:43:35.279Z,13.77
2018-05-24T16:46:02.749Z,10.83
2018-05-24T16:48:30.271Z,8.60
2018-05-24T16:50:57.764Z,9.20
2018-05-24T16:53:26.028Z,10.73
2018-05-24T16:55:54.317Z,10.33
2018-05-24T16:58:21.816Z,10.03
2018-05-24T17:00:49.340Z,10.43
2018-05-24T17:03:16.837Z,9.27
2018-05-24T17:05:44.332Z,9.20
2018-05-24T17:08:12.624Z,8.70
2018-05-24T17:10:40.888Z,8.20
2018-05-24T17:13:09.177Z,8.17
2018-05-24T17:15:37.437Z,9.10
2018-05-24T17:18:04.934Z,7.90
2018-05-24T17:20:32.452Z,6.73
2018-05-24T17:22:59.950Z,7.70
2018-05-24T17:25:27.472Z,7.53
2018-05-24T17:27:55.737Z,8.10
2018-05-24T17:30:23.259Z,7.10
2018-05-24T17:32:50.756Z,8.20
2018-05-24T17:35:18.249Z,9.13
2018-05-24T17:37:45.768Z,8.77
2018-05-24T17:40:13.268Z,10.93
2018-05-24T17:42:40.797Z,12.00
2018-05-24T17:45:09.068Z,11.90
2018-05-24T17:47:36.569Z,13.33
2018-05-24T17:50:04.101Z,65.90
2018-05-24T17:52:32.368Z,56.03
2018-05-24T17:54:59.896Z,17.43
2018-05-24T17:57:27.420Z,19.03
2018-05-24T17:59:54.929Z,18.00
2018-05-24T18:02:22.456Z,17.53
2018-05-24T18:04:49.961Z,17.80
2018-05-24T18:07:18.260Z,16.90
2018-05-24T18:09:45.767Z,17.23
2018-05-24T18:12:13.276Z,16.57
2018-05-24T18:14:41.572Z,16.63
2018-05-24T18:17:09.080Z,17.80
2018-05-24T18:19:36.608Z,15.67
2018-05-24T18:22:04.108Z,16.17
2018-05-24T18:24:32.400Z,18.63
2018-05-24T18:27:00.669Z,17.00
2018-05-24T18:29:28.962Z,86.23
2018-05-24T18:31:56.469Z,25.13
2018-05-24T18:34:23.995Z,17.73
2018-05-24T18:36:51.505Z,20.40
2018-05-24T18:39:19.029Z,18.80
2018-05-24T18:41:46.536Z,18.63
2018-05-24T18:44:14.833Z,20.17
2018-05-24T18:46:42.336Z,20.63
2018-05-24T18:49:09.844Z,22.50
2018-05-24T18:51:38.132Z,21.43
2018-05-24T18:54:05.636Z,20.53
2018-05-24T18:56:33.219Z,21.63
2018-05-24T18:59:00.682Z,22.47
2018-05-24T19:01:28.977Z,21.77
2018-05-24T19:03:56.489Z,29.53
2018-05-24T19:06:23.993Z,22.03
2018-05-24T19:08:51.516Z,22.47
2018-05-24T19:11:19.019Z,21.67
2018-05-24T19:13:46.554Z,27.23
2018-05-24T19:16:14.822Z,21.37
2018-05-24T19:18:42.350Z,23.20
2018-05-24T19:21:09.857Z,25.40
2018-05-24T19:23:38.149Z,24.27
2018-05-24T19:26:05.648Z,24.63
2018-05-24T19:28:33.153Z,24.83
2018-05-24T19:31:01.451Z,24.50
2018-05-24T19:33:28.959Z,27.53
2018-05-24T19:35:56.485Z,28.63
2018-05-24T19:38:23.989Z,30.57
2018-05-24T19:40:52.261Z,27.63
2018-05-24T19:43:19.789Z,29.60
2018-05-24T19:45:47.297Z,28.50
2018-05-24T19:48:16.608Z,27.37
2018-05-24T19:50:44.113Z,29.23
2018-05-24T19:53:11.652Z,29.00
2018-05-24T19:55:39.162Z,35.43
2018-05-24T19:58:07.458Z,92.77
2018-05-24T20:00:34.960Z,53.10
2018-05-24T20:03:02.528Z,33.07
2018-05-24T20:05:30.001Z,36.20
2018-05-24T20:07:57.505Z,34.93
2018-05-24T20:10:25.032Z,31.40
2018-05-24T20:12:53.308Z,33.07
2018-05-24T20:15:21.605Z,32.43
2018-05-24T20:17:49.873Z,34.50
2018-05-24T20:20:18.148Z,32.83
2018-05-24T20:22:46.480Z,36.73
2018-05-24T20:25:13.969Z,33.70
2018-05-24T20:27:41.492Z,34.77
2018-05-24T20:30:08.993Z,37.97
2018-05-24T20:32:37.298Z,35.53
2018-05-24T20:35:04.805Z,36.23
2018-05-24T20:37:32.309Z,36.53
2018-05-24T20:39:59.838Z,36.20
2018-05-24T20:42:27.341Z,36.70
2018-05-24T20:44:54.868Z,35.33
2018-05-24T20:47:23.136Z,37.00
2018-05-24T20:49:51.428Z,43.03
2018-05-24T20:52:19.701Z,35.50
2018-05-24T20:54:47.968Z,35.20
2018-05-24T20:57:16.269Z,37.73
2018-05-24T20:59:43.777Z,35.10
2018-05-24T21:02:11.301Z,38.87
2018-05-24T21:04:38.805Z,38.13
2018-05-24T21:07:06.337Z,37.17
2018-05-24T21:09:33.841Z,38.53
2018-05-24T21:12:02.121Z,43.80
2018-05-24T21:14:30.414Z,39.77
2018-05-24T21:16:57.922Z,44.87
2018-05-24T21:19:25.449Z,43.87
2018-05-24T21:21:52.953Z,40.17
2018-05-24T21:24:20.482Z,39.20
2018-05-24T21:26:47.985Z,38.97
2018-05-24T21:29:16.258Z,42.00
2018-05-24T21:31:44.555Z,43.00
2018-05-24T21:34:12.061Z,42.20
2018-05-24T21:36:39.583Z,44.77
2018-05-24T21:39:07.092Z,44.40
2018-05-24T21:41:34.593Z,42.77
2018-05-24T21:44:02.120Z,42.40
2018-05-24T21:46:29.626Z,46.70
2018-05-24T21:48:57.157Z,65.23
2018-05-24T21:51:25.427Z,59.23
2018-05-24T21:53:53.721Z,43.77
2018-05-24T21:56:21.988Z,43.50
2018-05-24T21:58:50.289Z,40.70
2018-05-24T22:01:17.795Z,42.37
2018-05-24T22:03:45.333Z,42.90
2018-05-24T22:06:12.867Z,41.80
2018-05-24T22:08:40.408Z,43.10
2018-05-24T22:11:07.914Z,42.93
2018-05-24T22:13:35.456Z,46.70
2018-05-24T22:16:02.991Z,44.03
2018-05-24T22:18:30.496Z,43.37
2018-05-24T22:20:58.029Z,43.97
2018-05-24T22:23:25.533Z,39.77
2018-05-24T22:25:53.039Z,41.30
2018-05-24T22:28:20.564Z,42.37
2018-05-24T22:30:49.325Z,47.70
2018-05-24T22:33:16.853Z,44.00
2018-05-24T22:35:44.365Z,42.47
2018-05-24T22:38:12.637Z,47.13
2018-05-24T22:40:40.155Z,48.93
2018-05-24T22:43:07.657Z,41.40
2018-05-24T22:45:35.952Z,39.30
2018-05-24T22:48:04.221Z,41.30
2018-05-24T22:50:32.492Z,46.97
2018-05-24T22:53:00.786Z,43.53
2018-05-24T22:55:28.297Z,39.63
2018-05-24T22:57:55.824Z,40.83
2018-05-24T23:00:23.338Z,45.33
2018-05-24T23:02:50.868Z,47.20
2018-05-24T23:05:18.424Z,39.57
2018-05-24T23:07:45.929Z,37.60
2018-05-24T23:10:14.196Z,36.67
2018-05-24T23:12:42.484Z,34.77
2018-05-24T23:15:10.752Z,38.03
2018-05-24T23:17:39.046Z,33.60
2018-05-24T23:20:06.553Z,54.53
2018-05-24T23:22:37.888Z,57.53
2018-05-24T23:25:05.392Z,38.93
2018-05-24T23:27:33.660Z,35.40
2018-05-24T23:30:01.191Z,34.57
2018-05-24T23:32:28.701Z,30.97
2018-05-24T23:34:56.992Z,33.43
2018-05-24T23:37:24.501Z,32.73
2018-05-24T23:39:52.042Z,32.57
2018-05-24T23:42:19.547Z,35.43
2018-05-24T23:44:47.840Z,30.07
2018-05-24T23:47:15.345Z,33.23
2018-05-24T23:49:42.848Z,31.23
2018-05-24T23:52:11.143Z,31.40
2018-05-24T23:54:38.649Z,29.07
2018-05-24T23:57:06.177Z,31.87
2018-05-24T23:59:33.677Z,29.90
